sensor_id;sensor_type;location;lat;lon;timestamp;temperature;humidity
70051;SHT30;57391;51.306;22.680;2024-01-30T00:01:44;1.60;77.91
70051;SHT30;57391;51.306;22.680;2024-01-30T00:03:46;1.60;77.91
70051;SHT30;57391;51.306;22.680;2024-01-30T00:05:48;1.58;77.95
70051;SHT30;57391;51.306;22.680;2024-01-30T00:07:50;1.57;77.94
70051;SHT30;57391;51.306;22.680;2024-01-30T00:09:52;1.55;77.91
70051;SHT30;57391;51.306;22.680;2024-01-30T00:11:53;1.54;77.91
70051;SHT30;57391;51.306;22.680;2024-01-30T00:13:56;1.52;77.99
70051;SHT30;57391;51.306;22.680;2024-01-30T00:15:57;1.52;78.03
70051;SHT30;57391;51.306;22.680;2024-01-30T00:17:59;1.51;78.05
70051;SHT30;57391;51.306;22.680;2024-01-30T00:20:01;1.51;78.13
70051;SHT30;57391;51.306;22.680;2024-01-30T00:22:06;1.50;78.16
70051;SHT30;57391;51.306;22.680;2024-01-30T00:24:08;1.50;78.18
70051;SHT30;57391;51.306;22.680;2024-01-30T00:26:10;1.49;78.20
70051;SHT30;57391;51.306;22.680;2024-01-30T00:28:12;1.50;78.20
70051;SHT30;57391;51.306;22.680;2024-01-30T00:30:14;1.49;78.19
70051;SHT30;57391;51.306;22.680;2024-01-30T00:32:16;1.48;78.20
70051;SHT30;57391;51.306;22.680;2024-01-30T00:34:18;1.47;78.13
70051;SHT30;57391;51.306;22.680;2024-01-30T00:36:19;1.47;78.20
70051;SHT30;57391;51.306;22.680;2024-01-30T00:38:21;1.46;78.15
70051;SHT30;57391;51.306;22.680;2024-01-30T00:40:23;1.47;78.11
70051;SHT30;57391;51.306;22.680;2024-01-30T00:42:25;1.44;78.10
70051;SHT30;57391;51.306;22.680;2024-01-30T00:44:27;1.45;78.10
70051;SHT30;57391;51.306;22.680;2024-01-30T00:46:29;1.46;78.09
70051;SHT30;57391;51.306;22.680;2024-01-30T00:48:30;1.45;78.00
70051;SHT30;57391;51.306;22.680;2024-01-30T00:50:32;1.45;77.99
70051;SHT30;57391;51.306;22.680;2024-01-30T00:52:34;1.45;77.89
70051;SHT30;57391;51.306;22.680;2024-01-30T00:54:36;1.45;77.85
70051;SHT30;57391;51.306;22.680;2024-01-30T00:56:38;1.45;77.80
70051;SHT30;57391;51.306;22.680;2024-01-30T00:58:40;1.44;77.80
70051;SHT30;57391;51.306;22.680;2024-01-30T01:00:42;1.45;77.72
70051;SHT30;57391;51.306;22.680;2024-01-30T01:02:43;1.44;77.70
70051;SHT30;57391;51.306;22.680;2024-01-30T01:04:46;1.43;77.71
70051;SHT30;57391;51.306;22.680;2024-01-30T01:06:47;1.44;77.70
70051;SHT30;57391;51.306;22.680;2024-01-30T01:08:49;1.43;77.69
70051;SHT30;57391;51.306;22.680;2024-01-30T01:10:51;1.43;77.65
70051;SHT30;57391;51.306;22.680;2024-01-30T01:12:53;1.44;77.60
70051;SHT30;57391;51.306;22.680;2024-01-30T01:14:54;1.43;77.50
70051;SHT30;57391;51.306;22.680;2024-01-30T01:16:56;1.43;77.49
70051;SHT30;57391;51.306;22.680;2024-01-30T01:18:58;1.44;77.43
70051;SHT30;57391;51.306;22.680;2024-01-30T01:21:01;1.43;77.34
70051;SHT30;57391;51.306;22.680;2024-01-30T01:23:03;1.45;77.29
70051;SHT30;57391;51.306;22.680;2024-01-30T01:25:05;1.44;77.20
70051;SHT30;57391;51.306;22.680;2024-01-30T01:27:11;1.43;77.13
70051;SHT30;57391;51.306;22.680;2024-01-30T01:29:13;1.44;77.03
70051;SHT30;57391;51.306;22.680;2024-01-30T01:31:14;1.43;76.96
70051;SHT30;57391;51.306;22.680;2024-01-30T01:33:16;1.44;76.91
70051;SHT30;57391;51.306;22.680;2024-01-30T01:35:18;1.43;76.88
70051;SHT30;57391;51.306;22.680;2024-01-30T01:37:20;1.43;76.80
70051;SHT30;57391;51.306;22.680;2024-01-30T01:39:23;1.43;76.76
70051;SHT30;57391;51.306;22.680;2024-01-30T01:41:25;1.42;76.78
70051;SHT30;57391;51.306;22.680;2024-01-30T01:43:35;1.42;76.72
70051;SHT30;57391;51.306;22.680;2024-01-30T01:45:36;1.42;76.70
70051;SHT30;57391;51.306;22.680;2024-01-30T01:47:38;1.43;76.70
70051;SHT30;57391;51.306;22.680;2024-01-30T01:49:40;1.44;76.63
70051;SHT30;57391;51.306;22.680;2024-01-30T01:51:43;1.44;76.59
70051;SHT30;57391;51.306;22.680;2024-01-30T01:53:47;1.45;76.54
70051;SHT30;57391;51.306;22.680;2024-01-30T01:55:49;1.45;76.50
70051;SHT30;57391;51.306;22.680;2024-01-30T01:57:51;1.45;76.44
70051;SHT30;57391;51.306;22.680;2024-01-30T01:59:55;1.44;76.41
70051;SHT30;57391;51.306;22.680;2024-01-30T02:01:57;1.43;76.41
70051;SHT30;57391;51.306;22.680;2024-01-30T02:03:59;1.44;76.41
70051;SHT30;57391;51.306;22.680;2024-01-30T02:06:01;1.44;76.39
70051;SHT30;57391;51.306;22.680;2024-01-30T02:08:05;1.45;76.36
70051;SHT30;57391;51.306;22.680;2024-01-30T02:10:07;1.45;76.38
70051;SHT30;57391;51.306;22.680;2024-01-30T02:12:11;1.45;76.29
70051;SHT30;57391;51.306;22.680;2024-01-30T02:14:12;1.46;76.29
70051;SHT30;57391;51.306;22.680;2024-01-30T02:16:14;1.46;76.22
70051;SHT30;57391;51.306;22.680;2024-01-30T02:18:16;1.46;76.15
70051;SHT30;57391;51.306;22.680;2024-01-30T02:20:18;1.48;76.10
70051;SHT30;57391;51.306;22.680;2024-01-30T02:22:20;1.49;76.14
70051;SHT30;57391;51.306;22.680;2024-01-30T02:24:22;1.51;76.05
70051;SHT30;57391;51.306;22.680;2024-01-30T02:26:24;1.52;75.96
70051;SHT30;57391;51.306;22.680;2024-01-30T02:28:26;1.55;75.90
70051;SHT30;57391;51.306;22.680;2024-01-30T02:30:28;1.57;75.82
70051;SHT30;57391;51.306;22.680;2024-01-30T02:32:30;1.59;75.76
70051;SHT30;57391;51.306;22.680;2024-01-30T02:34:31;1.60;75.68
70051;SHT30;57391;51.306;22.680;2024-01-30T02:36:33;1.61;75.61
70051;SHT30;57391;51.306;22.680;2024-01-30T02:38:35;1.60;75.53
70051;SHT30;57391;51.306;22.680;2024-01-30T02:40:37;1.61;75.47
70051;SHT30;57391;51.306;22.680;2024-01-30T02:42:39;1.58;75.40
70051;SHT30;57391;51.306;22.680;2024-01-30T02:44:40;1.59;75.40
70051;SHT30;57391;51.306;22.680;2024-01-30T02:46:42;1.58;75.38
70051;SHT30;57391;51.306;22.680;2024-01-30T02:48:44;1.59;75.40
70051;SHT30;57391;51.306;22.680;2024-01-30T02:50:45;1.58;75.39
70051;SHT30;57391;51.306;22.680;2024-01-30T02:52:48;1.59;75.30
70051;SHT30;57391;51.306;22.680;2024-01-30T02:54:49;1.59;75.20
70051;SHT30;57391;51.306;22.680;2024-01-30T02:56:51;1.58;75.19
70051;SHT30;57391;51.306;22.680;2024-01-30T02:58:53;1.57;75.14
70051;SHT30;57391;51.306;22.680;2024-01-30T03:00:54;1.55;75.06
70051;SHT30;57391;51.306;22.680;2024-01-30T03:02:56;1.54;75.00
70051;SHT30;57391;51.306;22.680;2024-01-30T03:04:59;1.50;74.95
70051;SHT30;57391;51.306;22.680;2024-01-30T03:07:01;1.49;74.96
70051;SHT30;57391;51.306;22.680;2024-01-30T03:09:03;1.47;74.91
70051;SHT30;57391;51.306;22.680;2024-01-30T03:11:05;1.44;75.00
70051;SHT30;57391;51.306;22.680;2024-01-30T03:13:07;1.42;74.96
70051;SHT30;57391;51.306;22.680;2024-01-30T03:15:09;1.40;74.94
70051;SHT30;57391;51.306;22.680;2024-01-30T03:17:11;1.39;74.99
70051;SHT30;57391;51.306;22.680;2024-01-30T03:19:12;1.38;74.94
70051;SHT30;57391;51.306;22.680;2024-01-30T03:21:14;1.37;74.96
70051;SHT30;57391;51.306;22.680;2024-01-30T03:23:16;1.35;74.91
70051;SHT30;57391;51.306;22.680;2024-01-30T03:25:17;1.34;74.95
70051;SHT30;57391;51.306;22.680;2024-01-30T03:27:19;1.33;74.97
70051;SHT30;57391;51.306;22.680;2024-01-30T03:29:21;1.30;74.94
70051;SHT30;57391;51.306;22.680;2024-01-30T03:31:23;1.29;75.01
70051;SHT30;57391;51.306;22.680;2024-01-30T03:33:25;1.30;75.00
70051;SHT30;57391;51.306;22.680;2024-01-30T03:35:26;1.29;75.00
70051;SHT30;57391;51.306;22.680;2024-01-30T03:37:28;1.29;74.95
70051;SHT30;57391;51.306;22.680;2024-01-30T03:39:30;1.29;74.90
70051;SHT30;57391;51.306;22.680;2024-01-30T03:41:32;1.29;74.90
70051;SHT30;57391;51.306;22.680;2024-01-30T03:43:33;1.28;74.86
70051;SHT30;57391;51.306;22.680;2024-01-30T03:45:35;1.27;74.82
70051;SHT30;57391;51.306;22.680;2024-01-30T03:47:37;1.27;74.84
70051;SHT30;57391;51.306;22.680;2024-01-30T03:49:38;1.27;74.76
70051;SHT30;57391;51.306;22.680;2024-01-30T03:51:41;1.24;74.70
70051;SHT30;57391;51.306;22.680;2024-01-30T03:53:43;1.24;74.72
70051;SHT30;57391;51.306;22.680;2024-01-30T03:55:45;1.21;74.74
70051;SHT30;57391;51.306;22.680;2024-01-30T03:57:46;1.20;74.79
70051;SHT30;57391;51.306;22.680;2024-01-30T03:59:48;1.19;74.80
70051;SHT30;57391;51.306;22.680;2024-01-30T04:01:50;1.18;74.80
70051;SHT30;57391;51.306;22.680;2024-01-30T04:03:52;1.16;74.82
70051;SHT30;57391;51.306;22.680;2024-01-30T04:05:54;1.15;74.89
70051;SHT30;57391;51.306;22.680;2024-01-30T04:07:56;1.13;74.91
70051;SHT30;57391;51.306;22.680;2024-01-30T04:09:57;1.13;74.90
70051;SHT30;57391;51.306;22.680;2024-01-30T04:11:59;1.12;74.91
70051;SHT30;57391;51.306;22.680;2024-01-30T04:14:01;1.11;74.91
70051;SHT30;57391;51.306;22.680;2024-01-30T04:16:03;1.09;74.97
70051;SHT30;57391;51.306;22.680;2024-01-30T04:18:05;1.08;74.97
70051;SHT30;57391;51.306;22.680;2024-01-30T04:20:07;1.07;75.00
70051;SHT30;57391;51.306;22.680;2024-01-30T04:22:09;1.06;74.99
70051;SHT30;57391;51.306;22.680;2024-01-30T04:24:11;1.07;74.97
70051;SHT30;57391;51.306;22.680;2024-01-30T04:26:13;1.06;74.97
70051;SHT30;57391;51.306;22.680;2024-01-30T04:28:14;1.06;74.97
70051;SHT30;57391;51.306;22.680;2024-01-30T04:30:16;1.05;74.91
70051;SHT30;57391;51.306;22.680;2024-01-30T04:32:18;1.06;74.93
70051;SHT30;57391;51.306;22.680;2024-01-30T04:34:20;1.05;74.95
70051;SHT30;57391;51.306;22.680;2024-01-30T04:36:21;1.07;74.93
70051;SHT30;57391;51.306;22.680;2024-01-30T04:38:23;1.06;74.90
70051;SHT30;57391;51.306;22.680;2024-01-30T04:40:25;1.05;74.90
70051;SHT30;57391;51.306;22.680;2024-01-30T04:42:27;1.05;74.88
70051;SHT30;57391;51.306;22.680;2024-01-30T04:44:28;1.03;74.90
70051;SHT30;57391;51.306;22.680;2024-01-30T04:46:30;1.03;74.90
70051;SHT30;57391;51.306;22.680;2024-01-30T04:48:32;1.01;74.91
70051;SHT30;57391;51.306;22.680;2024-01-30T04:50:33;1.01;74.94
70051;SHT30;57391;51.306;22.680;2024-01-30T04:52:35;0.99;74.94
70051;SHT30;57391;51.306;22.680;2024-01-30T04:54:37;0.98;74.95
70051;SHT30;57391;51.306;22.680;2024-01-30T04:56:39;0.97;74.99
70051;SHT30;57391;51.306;22.680;2024-01-30T04:58:41;0.96;75.00
70051;SHT30;57391;51.306;22.680;2024-01-30T05:00:42;0.95;75.01
70051;SHT30;57391;51.306;22.680;2024-01-30T05:02:44;0.94;75.06
70051;SHT30;57391;51.306;22.680;2024-01-30T05:04:46;0.95;75.06
70051;SHT30;57391;51.306;22.680;2024-01-30T05:06:48;0.94;75.05
70051;SHT30;57391;51.306;22.680;2024-01-30T05:08:50;0.94;75.03
70051;SHT30;57391;51.306;22.680;2024-01-30T05:10:52;0.95;75.00
70051;SHT30;57391;51.306;22.680;2024-01-30T05:12:53;0.96;74.97
70051;SHT30;57391;51.306;22.680;2024-01-30T05:14:55;0.97;74.97
70051;SHT30;57391;51.306;22.680;2024-01-30T05:16:57;0.99;74.91
70051;SHT30;57391;51.306;22.680;2024-01-30T05:18:59;0.99;74.90
70051;SHT30;57391;51.306;22.680;2024-01-30T05:21:01;1.00;74.85
70051;SHT30;57391;51.306;22.680;2024-01-30T05:23:04;1.00;74.84
70051;SHT30;57391;51.306;22.680;2024-01-30T05:25:05;1.01;74.79
70051;SHT30;57391;51.306;22.680;2024-01-30T05:27:08;1.01;74.75
70051;SHT30;57391;51.306;22.680;2024-01-30T05:29:10;1.02;74.71
70051;SHT30;57391;51.306;22.680;2024-01-30T05:31:11;1.01;74.70
70051;SHT30;57391;51.306;22.680;2024-01-30T05:33:13;1.02;74.70
70051;SHT30;57391;51.306;22.680;2024-01-30T05:35:15;1.01;74.69
70051;SHT30;57391;51.306;22.680;2024-01-30T05:37:17;1.01;74.63
70051;SHT30;57391;51.306;22.680;2024-01-30T05:39:19;1.02;74.61
70051;SHT30;57391;51.306;22.680;2024-01-30T05:41:21;1.02;74.60
70051;SHT30;57391;51.306;22.680;2024-01-30T05:43:22;1.01;74.61
70051;SHT30;57391;51.306;22.680;2024-01-30T05:45:24;1.02;74.60
70051;SHT30;57391;51.306;22.680;2024-01-30T05:47:26;1.03;74.57
70051;SHT30;57391;51.306;22.680;2024-01-30T05:49:28;1.03;74.53
70051;SHT30;57391;51.306;22.680;2024-01-30T05:51:30;1.04;74.50
70051;SHT30;57391;51.306;22.680;2024-01-30T05:53:31;1.05;74.47
70051;SHT30;57391;51.306;22.680;2024-01-30T05:55:33;1.06;74.41
70051;SHT30;57391;51.306;22.680;2024-01-30T05:57:35;1.07;74.40
70051;SHT30;57391;51.306;22.680;2024-01-30T05:59:36;1.09;74.35
70051;SHT30;57391;51.306;22.680;2024-01-30T06:01:38;1.12;74.30
70051;SHT30;57391;51.306;22.680;2024-01-30T06:03:48;1.12;74.24
70051;SHT30;57391;51.306;22.680;2024-01-30T06:05:49;1.13;74.20
70051;SHT30;57391;51.306;22.680;2024-01-30T06:07:51;1.14;74.20
70051;SHT30;57391;51.306;22.680;2024-01-30T06:09:53;1.16;74.20
70051;SHT30;57391;51.306;22.680;2024-01-30T06:11:55;1.17;74.20
70051;SHT30;57391;51.306;22.680;2024-01-30T06:13:56;1.18;74.13
70051;SHT30;57391;51.306;22.680;2024-01-30T06:15:58;1.20;74.10
70051;SHT30;57391;51.306;22.680;2024-01-30T06:18:00;1.21;74.10
70051;SHT30;57391;51.306;22.680;2024-01-30T06:20:02;1.23;74.10
70051;SHT30;57391;51.306;22.680;2024-01-30T06:22:05;1.25;74.03
70051;SHT30;57391;51.306;22.680;2024-01-30T06:24:06;1.28;74.03
70051;SHT30;57391;51.306;22.680;2024-01-30T06:26:08;1.33;74.00
70051;SHT30;57391;51.306;22.680;2024-01-30T06:28:10;1.38;73.93
70051;SHT30;57391;51.306;22.680;2024-01-30T06:30:12;1.44;73.85
70051;SHT30;57391;51.306;22.680;2024-01-30T06:32:14;1.49;73.82
70051;SHT30;57391;51.306;22.680;2024-01-30T06:34:16;1.69;73.59
70051;SHT30;57391;51.306;22.680;2024-01-30T06:36:18;1.95;72.97
70051;SHT30;57391;51.306;22.680;2024-01-30T06:38:19;2.27;72.41
70051;SHT30;57391;51.306;22.680;2024-01-30T06:40:21;2.62;71.46
70051;SHT30;57391;51.306;22.680;2024-01-30T06:42:23;3.01;70.80
70051;SHT30;57391;51.306;22.680;2024-01-30T06:44:24;3.38;69.94
70051;SHT30;57391;51.306;22.680;2024-01-30T06:46:26;3.70;68.84
70051;SHT30;57391;51.306;22.680;2024-01-30T06:48:28;4.00;67.75
70051;SHT30;57391;51.306;22.680;2024-01-30T06:50:30;4.29;67.24
70051;SHT30;57391;51.306;22.680;2024-01-30T06:52:32;4.57;66.36
70051;SHT30;57391;51.306;22.680;2024-01-30T06:54:33;4.84;65.49
70051;SHT30;57391;51.306;22.680;2024-01-30T06:56:35;5.05;64.68
70051;SHT30;57391;51.306;22.680;2024-01-30T06:58:37;5.21;63.86
70051;SHT30;57391;51.306;22.680;2024-01-30T07:00:39;5.42;63.65
70051;SHT30;57391;51.306;22.680;2024-01-30T07:02:41;5.64;62.97
70051;SHT30;57391;51.306;22.680;2024-01-30T07:04:42;5.82;62.30
70051;SHT30;57391;51.306;22.680;2024-01-30T07:06:44;6.00;61.81
70051;SHT30;57391;51.306;22.680;2024-01-30T07:08:46;6.17;61.36
70051;SHT30;57391;51.306;22.680;2024-01-30T07:10:48;6.33;60.58
70051;SHT30;57391;51.306;22.680;2024-01-30T07:12:49;6.50;60.41
70051;SHT30;57391;51.306;22.680;2024-01-30T07:14:51;6.66;59.80
70051;SHT30;57391;51.306;22.680;2024-01-30T07:16:53;6.83;59.56
70051;SHT30;57391;51.306;22.680;2024-01-30T07:18:55;6.97;58.80
70051;SHT30;57391;51.306;22.680;2024-01-30T07:20:57;7.13;58.55
70051;SHT30;57391;51.306;22.680;2024-01-30T07:22:59;7.26;57.66
70051;SHT30;57391;51.306;22.680;2024-01-30T07:25:01;7.38;57.47
70051;SHT30;57391;51.306;22.680;2024-01-30T07:27:03;7.49;56.80
70051;SHT30;57391;51.306;22.680;2024-01-30T07:29:05;7.59;56.31
70051;SHT30;57391;51.306;22.680;2024-01-30T07:31:07;7.70;56.00
70051;SHT30;57391;51.306;22.680;2024-01-30T07:33:08;7.79;55.64
70051;SHT30;57391;51.306;22.680;2024-01-30T07:35:10;7.89;55.67
70051;SHT30;57391;51.306;22.680;2024-01-30T07:37:12;8.01;55.41
70051;SHT30;57391;51.306;22.680;2024-01-30T07:39:16;8.06;54.45
70051;SHT30;57391;51.306;22.680;2024-01-30T07:41:18;8.13;54.42
70051;SHT30;57391;51.306;22.680;2024-01-30T07:43:20;8.18;54.39
70051;SHT30;57391;51.306;22.680;2024-01-30T07:45:21;8.24;54.26
70051;SHT30;57391;51.306;22.680;2024-01-30T07:47:25;8.26;54.03
70051;SHT30;57391;51.306;22.680;2024-01-30T07:49:27;8.19;53.35
70051;SHT30;57391;51.306;22.680;2024-01-30T07:51:29;8.08;53.75
70051;SHT30;57391;51.306;22.680;2024-01-30T07:53:33;8.01;54.03
70051;SHT30;57391;51.306;22.680;2024-01-30T07:55:34;7.94;54.20
70051;SHT30;57391;51.306;22.680;2024-01-30T07:57:38;7.89;54.60
70051;SHT30;57391;51.306;22.680;2024-01-30T07:59:44;7.91;54.66
70051;SHT30;57391;51.306;22.680;2024-01-30T08:01:49;8.02;54.71
70051;SHT30;57391;51.306;22.680;2024-01-30T08:03:51;8.13;54.35
70051;SHT30;57391;51.306;22.680;2024-01-30T08:05:53;8.27;54.13
70051;SHT30;57391;51.306;22.680;2024-01-30T08:07:54;8.35;53.50
70051;SHT30;57391;51.306;22.680;2024-01-30T08:09:56;8.42;53.40
70051;SHT30;57391;51.306;22.680;2024-01-30T08:11:58;8.49;53.44
70051;SHT30;57391;51.306;22.680;2024-01-30T08:13:59;8.60;53.31
70051;SHT30;57391;51.306;22.680;2024-01-30T08:16:01;8.68;52.75
70051;SHT30;57391;51.306;22.680;2024-01-30T08:18:03;8.77;52.76
70051;SHT30;57391;51.306;22.680;2024-01-30T08:20:06;8.86;52.39
70051;SHT30;57391;51.306;22.680;2024-01-30T08:22:09;8.92;51.78
70051;SHT30;57391;51.306;22.680;2024-01-30T08:24:13;8.94;52.08
70051;SHT30;57391;51.306;22.680;2024-01-30T08:26:14;9.02;52.14
70051;SHT30;57391;51.306;22.680;2024-01-30T08:28:18;9.10;52.04
70051;SHT30;57391;51.306;22.680;2024-01-30T08:30:20;9.13;51.46
70051;SHT30;57391;51.306;22.680;2024-01-30T08:32:22;9.17;51.49
70051;SHT30;57391;51.306;22.680;2024-01-30T08:34:25;9.24;51.28
70051;SHT30;57391;51.306;22.680;2024-01-30T08:36:26;9.31;51.01
70051;SHT30;57391;51.306;22.680;2024-01-30T08:38:28;9.37;50.78
70051;SHT30;57391;51.306;22.680;2024-01-30T08:40:30;9.43;51.20
70051;SHT30;57391;51.306;22.680;2024-01-30T08:42:31;9.48;51.29
70051;SHT30;57391;51.306;22.680;2024-01-30T08:44:34;9.53;50.96
70051;SHT30;57391;51.306;22.680;2024-01-30T08:46:36;9.59;50.71
70051;SHT30;57391;51.306;22.680;2024-01-30T08:48:38;9.64;50.42
70051;SHT30;57391;51.306;22.680;2024-01-30T08:50:40;9.70;50.51
70051;SHT30;57391;51.306;22.680;2024-01-30T08:52:41;9.67;49.86
70051;SHT30;57391;51.306;22.680;2024-01-30T08:54:43;9.62;50.15
70051;SHT30;57391;51.306;22.680;2024-01-30T08:56:45;9.58;50.65
70051;SHT30;57391;51.306;22.680;2024-01-30T08:58:46;9.60;50.24
70051;SHT30;57391;51.306;22.680;2024-01-30T09:00:48;9.59;50.14
70051;SHT30;57391;51.306;22.680;2024-01-30T09:02:50;9.51;49.69
70051;SHT30;57391;51.306;22.680;2024-01-30T09:04:52;9.42;50.34
70051;SHT30;57391;51.306;22.680;2024-01-30T09:06:53;9.31;50.86
70051;SHT30;57391;51.306;22.680;2024-01-30T09:08:55;9.22;51.15
70051;SHT30;57391;51.306;22.680;2024-01-30T09:10:59;9.06;51.04
70051;SHT30;57391;51.306;22.680;2024-01-30T09:13:00;8.94;51.25
70051;SHT30;57391;51.306;22.680;2024-01-30T09:15:02;8.83;51.67
70051;SHT30;57391;51.306;22.680;2024-01-30T09:17:04;8.75;52.04
70051;SHT30;57391;51.306;22.680;2024-01-30T09:19:06;8.66;52.35
70051;SHT30;57391;51.306;22.680;2024-01-30T09:21:08;8.65;52.71
70051;SHT30;57391;51.306;22.680;2024-01-30T09:23:09;8.61;52.64
70051;SHT30;57391;51.306;22.680;2024-01-30T09:25:12;8.60;52.51
70051;SHT30;57391;51.306;22.680;2024-01-30T09:27:13;8.54;52.01
70051;SHT30;57391;51.306;22.680;2024-01-30T09:29:15;8.49;52.67
70051;SHT30;57391;51.306;22.680;2024-01-30T09:31:17;8.42;51.94
70051;SHT30;57391;51.306;22.680;2024-01-30T09:33:18;8.32;52.16
70051;SHT30;57391;51.306;22.680;2024-01-30T09:35:21;8.23;52.46
70051;SHT30;57391;51.306;22.680;2024-01-30T09:37:23;8.17;52.33
70051;SHT30;57391;51.306;22.680;2024-01-30T09:39:24;8.11;53.44
70051;SHT30;57391;51.306;22.680;2024-01-30T09:41:26;8.14;53.21
70051;SHT30;57391;51.306;22.680;2024-01-30T09:43:31;8.10;52.63
70051;SHT30;57391;51.306;22.680;2024-01-30T09:45:35;8.05;53.09
70051;SHT30;57391;51.306;22.680;2024-01-30T09:47:41;8.02;53.08
70051;SHT30;57391;51.306;22.680;2024-01-30T09:49:45;8.02;53.21
70051;SHT30;57391;51.306;22.680;2024-01-30T09:51:47;8.00;52.94
70051;SHT30;57391;51.306;22.680;2024-01-30T09:53:51;8.00;53.64
70051;SHT30;57391;51.306;22.680;2024-01-30T09:55:55;7.99;53.80
70051;SHT30;57391;51.306;22.680;2024-01-30T09:57:57;7.99;53.26
70051;SHT30;57391;51.306;22.680;2024-01-30T10:00:01;7.97;53.08
70051;SHT30;57391;51.306;22.680;2024-01-30T10:02:04;7.95;53.05
70051;SHT30;57391;51.306;22.680;2024-01-30T10:04:05;7.89;52.49
70051;SHT30;57391;51.306;22.680;2024-01-30T10:06:08;7.84;52.78
70051;SHT30;57391;51.306;22.680;2024-01-30T10:08:11;7.80;52.81
70051;SHT30;57391;51.306;22.680;2024-01-30T10:10:13;7.78;53.19
70051;SHT30;57391;51.306;22.680;2024-01-30T10:12:15;7.81;53.72
70051;SHT30;57391;51.306;22.680;2024-01-30T10:14:17;7.84;53.55
70051;SHT30;57391;51.306;22.680;2024-01-30T10:16:19;7.86;53.39
70051;SHT30;57391;51.306;22.680;2024-01-30T10:18:22;7.87;53.19
70051;SHT30;57391;51.306;22.680;2024-01-30T10:20:24;7.85;53.13
70051;SHT30;57391;51.306;22.680;2024-01-30T10:22:26;7.87;53.61
70051;SHT30;57391;51.306;22.680;2024-01-30T10:24:28;7.89;53.41
70051;SHT30;57391;51.306;22.680;2024-01-30T10:26:33;7.90;53.90
70051;SHT30;57391;51.306;22.680;2024-01-30T10:28:35;7.96;54.26
70051;SHT30;57391;51.306;22.680;2024-01-30T10:30:37;8.01;53.63
70051;SHT30;57391;51.306;22.680;2024-01-30T10:32:39;8.05;53.74
70051;SHT30;57391;51.306;22.680;2024-01-30T10:34:40;8.09;53.86
70051;SHT30;57391;51.306;22.680;2024-01-30T10:36:42;8.14;53.66
70051;SHT30;57391;51.306;22.680;2024-01-30T10:38:51;8.18;53.04
70051;SHT30;57391;51.306;22.680;2024-01-30T10:40:55;8.15;52.90
70051;SHT30;57391;51.306;22.680;2024-01-30T10:42:59;8.16;52.97
70051;SHT30;57391;51.306;22.680;2024-01-30T10:47:11;8.16;52.16
70051;SHT30;57391;51.306;22.680;2024-01-30T10:49:15;8.17;52.63
70051;SHT30;57391;51.306;22.680;2024-01-30T10:51:18;8.19;52.42
70051;SHT30;57391;51.306;22.680;2024-01-30T10:53:21;8.20;52.66
70051;SHT30;57391;51.306;22.680;2024-01-30T10:55:24;8.23;52.53
70051;SHT30;57391;51.306;22.680;2024-01-30T10:57:29;8.26;52.30
70051;SHT30;57391;51.306;22.680;2024-01-30T10:59:31;8.27;52.09
70051;SHT30;57391;51.306;22.680;2024-01-30T11:01:34;8.28;52.41
70051;SHT30;57391;51.306;22.680;2024-01-30T11:03:37;8.32;52.22
70051;SHT30;57391;51.306;22.680;2024-01-30T11:05:40;8.33;51.69
70051;SHT30;57391;51.306;22.680;2024-01-30T11:07:42;8.34;52.03
70051;SHT30;57391;51.306;22.680;2024-01-30T11:09:50;8.38;52.30
70051;SHT30;57391;51.306;22.680;2024-01-30T11:11:58;8.43;51.89
70051;SHT30;57391;51.306;22.680;2024-01-30T11:14:04;8.45;51.84
70051;SHT30;57391;51.306;22.680;2024-01-30T11:16:05;8.48;52.13
70051;SHT30;57391;51.306;22.680;2024-01-30T11:18:08;8.55;52.05
70051;SHT30;57391;51.306;22.680;2024-01-30T11:20:12;8.59;51.66
70051;SHT30;57391;51.306;22.680;2024-01-30T11:22:19;8.63;52.25
70051;SHT30;57391;51.306;22.680;2024-01-30T11:24:22;8.69;51.69
70051;SHT30;57391;51.306;22.680;2024-01-30T11:26:28;8.71;51.05
70051;SHT30;57391;51.306;22.680;2024-01-30T11:28:32;8.72;50.81
70051;SHT30;57391;51.306;22.680;2024-01-30T11:30:35;8.72;51.17
70051;SHT30;57391;51.306;22.680;2024-01-30T11:32:37;8.76;51.50
70051;SHT30;57391;51.306;22.680;2024-01-30T11:34:40;8.83;51.90
70051;SHT30;57391;51.306;22.680;2024-01-30T11:36:43;8.90;51.46
70051;SHT30;57391;51.306;22.680;2024-01-30T11:39:00;8.95;51.01
70051;SHT30;57391;51.306;22.680;2024-01-30T11:41:02;8.99;50.55
70051;SHT30;57391;51.306;22.680;2024-01-30T11:43:06;9.04;49.96
70051;SHT30;57391;51.306;22.680;2024-01-30T11:45:10;9.03;49.13
70051;SHT30;57391;51.306;22.680;2024-01-30T11:47:12;9.03;49.72
70051;SHT30;57391;51.306;22.680;2024-01-30T11:49:15;9.04;49.78
70051;SHT30;57391;51.306;22.680;2024-01-30T11:51:21;9.06;49.44
70051;SHT30;57391;51.306;22.680;2024-01-30T11:53:22;9.05;49.58
70051;SHT30;57391;51.306;22.680;2024-01-30T11:55:24;9.07;49.46
70051;SHT30;57391;51.306;22.680;2024-01-30T11:57:27;9.08;49.65
70051;SHT30;57391;51.306;22.680;2024-01-30T11:59:29;9.11;49.78
70051;SHT30;57391;51.306;22.680;2024-01-30T12:01:31;9.15;49.75
70051;SHT30;57391;51.306;22.680;2024-01-30T12:03:33;9.18;49.42
70051;SHT30;57391;51.306;22.680;2024-01-30T12:05:35;9.24;49.64
70051;SHT30;57391;51.306;22.680;2024-01-30T12:07:37;9.30;50.03
70051;SHT30;57391;51.306;22.680;2024-01-30T12:09:39;9.40;50.01
70051;SHT30;57391;51.306;22.680;2024-01-30T12:11:44;9.49;49.69
70051;SHT30;57391;51.306;22.680;2024-01-30T12:13:46;9.57;49.51
70051;SHT30;57391;51.306;22.680;2024-01-30T12:15:48;9.63;48.49
70051;SHT30;57391;51.306;22.680;2024-01-30T12:17:50;9.69;48.76
70051;SHT30;57391;51.306;22.680;2024-01-30T12:20:02;9.75;48.97
70051;SHT30;57391;51.306;22.680;2024-01-30T12:22:07;9.83;48.74
70051;SHT30;57391;51.306;22.680;2024-01-30T12:24:12;9.89;48.60
70051;SHT30;57391;51.306;22.680;2024-01-30T12:26:14;9.96;48.59
70051;SHT30;57391;51.306;22.680;2024-01-30T12:28:15;10.03;48.49
70051;SHT30;57391;51.306;22.680;2024-01-30T12:30:19;10.12;48.00
70051;SHT30;57391;51.306;22.680;2024-01-30T12:32:22;10.18;47.53
70051;SHT30;57391;51.306;22.680;2024-01-30T12:34:24;10.20;47.34
70051;SHT30;57391;51.306;22.680;2024-01-30T12:36:26;10.25;47.17
70051;SHT30;57391;51.306;22.680;2024-01-30T12:38:30;10.29;47.25
70051;SHT30;57391;51.306;22.680;2024-01-30T12:40:33;10.33;47.04
70051;SHT30;57391;51.306;22.680;2024-01-30T12:42:35;10.40;47.09
70051;SHT30;57391;51.306;22.680;2024-01-30T12:44:37;10.47;46.74
70051;SHT30;57391;51.306;22.680;2024-01-30T12:46:39;10.48;46.70
70051;SHT30;57391;51.306;22.680;2024-01-30T12:48:41;10.49;45.99
70051;SHT30;57391;51.306;22.680;2024-01-30T12:50:42;10.47;45.86
70051;SHT30;57391;51.306;22.680;2024-01-30T12:52:44;10.47;46.42
70051;SHT30;57391;51.306;22.680;2024-01-30T12:54:46;10.48;46.66